Time;durP1;ratioP1;P1;durP2;ratioP2;P2;SDS_P1;SDS_P2;PMS_P1;PMS_P2;Temp;Humidity;BMP_temperature;BMP_pressure;BME280_temperature;BME280_humidity;BME280_pressure;Samples;Min_cycle;Max_cycle;Signal;HPM_P1;HPM_P2
2023/08/08 00:00:30;;;;;;;5.30;3.38;;;;;;;13.27;97.75;101420.97;5101604;28;20027;-52
2023/08/08 00:02:55;;;;;;;4.57;2.92;;;;;;;13.27;98.03;101417.44;5099278;28;20452;-49
2023/08/08 00:05:20;;;;;;;5.22;2.67;;;;;;;13.25;98.63;101425.56;5099717;28;20027;-50
2023/08/08 00:07:46;;;;;;;6.30;2.83;;;;;;;13.24;99.13;101418.56;5099338;28;20032;-50
2023/08/08 00:10:11;;;;;;;4.70;3.13;;;;;;;13.23;98.54;101424.84;5096631;28;20028;-49
2023/08/08 00:12:36;;;;;;;8.50;3.00;;;;;;;13.21;99.50;101418.78;5095161;28;20291;-49
2023/08/08 00:15:02;;;;;;;7.05;2.70;;;;;;;13.21;99.70;101423.28;5100933;28;20063;-50
2023/08/08 00:17:27;;;;;;;6.88;2.63;;;;;;;13.21;98.60;101420.63;5098042;28;20059;-48
2023/08/08 00:19:52;;;;;;;10.45;3.22;;;;;;;13.21;99.02;101417.94;5097392;28;20050;-49
2023/08/08 00:22:18;;;;;;;4.45;2.85;;;;;;;13.21;99.37;101426.78;5097673;28;20030;-49
2023/08/08 00:24:43;;;;;;;5.55;2.75;;;;;;;13.24;99.72;101417.69;5100877;28;20028;-48
2023/08/08 00:27:08;;;;;;;5.03;2.58;;;;;;;13.22;99.16;101419.63;5098615;28;20024;-50
2023/08/08 00:29:34;;;;;;;5.63;2.90;;;;;;;13.23;99.82;101418.66;5099695;28;20070;-50
2023/08/08 00:31:59;;;;;;;3.75;2.58;;;;;;;13.25;99.22;101425.56;5099113;28;20024;-50
2023/08/08 00:34:24;;;;;;;7.07;3.03;;;;;;;13.26;100.00;101419.28;5103986;28;20028;-49
2023/08/08 00:36:50;;;;;;;6.03;2.67;;;;;;;13.29;99.44;101420.88;5097358;28;20028;-49
2023/08/08 00:39:15;;;;;;;6.70;3.08;;;;;;;13.29;100.00;101418.19;5100880;28;20578;-50
2023/08/08 00:41:40;;;;;;;6.88;2.90;;;;;;;13.28;100.00;101411.16;5093061;28;20028;-50
2023/08/08 00:44:06;;;;;;;5.55;2.80;;;;;;;13.27;100.00;101402.31;5099288;28;20055;-49
2023/08/08 00:46:31;;;;;;;9.45;2.90;;;;;;;13.29;99.61;101405.69;5096972;28;20743;-49
2023/08/08 00:48:57;;;;;;;6.78;2.95;;;;;;;13.30;99.85;101411.88;5099854;28;20023;-49
2023/08/08 00:51:24;;;;;;;5.82;2.75;;;;;;;13.30;99.94;101401.19;5102725;28;20457;-50
2023/08/08 00:53:49;;;;;;;6.13;2.63;;;;;;;13.33;100.00;101406.34;5089185;28;20028;-51
2023/08/08 00:56:16;;;;;;;5.10;2.72;;;;;;;13.32;99.46;101394.81;5092545;28;20031;-49
2023/08/08 00:58:45;;;;;;;7.55;2.95;;;;;;;13.36;100.00;101403.41;5100620;28;20034;-49
2023/08/08 01:01:10;;;;;;;5.47;2.80;;;;;;;13.36;100.00;101392.75;5099824;28;20063;-48
2023/08/08 01:03:35;;;;;;;6.93;2.80;;;;;;;13.37;100.00;101402.44;5098727;28;20047;-49
2023/08/08 01:06:08;;;;;;;6.35;2.92;;;;;;;13.39;100.00;101405.84;5094519;28;20031;-48
2023/08/08 01:08:42;;;;;;;6.70;3.10;;;;;;;13.41;100.00;101405.72;5098674;28;20099;-48
2023/08/08 01:11:08;;;;;;;7.00;2.85;;;;;;;13.42;100.00;101408.28;5098921;28;20016;-46
2023/08/08 01:13:35;;;;;;;8.05;3.33;;;;;;;13.44;100.00;101409.00;5096876;28;20032;-47
2023/08/08 01:16:03;;;;;;;6.07;2.92;;;;;;;13.46;100.00;101408.88;5096877;28;20028;-47
2023/08/08 01:18:29;;;;;;;7.72;3.35;;;;;;;13.48;100.00;101399.75;5093712;28;20024;-46
2023/08/08 01:20:56;;;;;;;4.53;2.80;;;;;;;13.50;100.00;101403.16;5099211;28;20027;-46
2023/08/08 01:23:50;;;;;;;6.63;2.83;;;;;;;13.54;100.00;101393.09;5092805;28;20032;-47
2023/08/08 01:26:16;;;;;;;3.92;2.80;;;;;;;13.55;100.00;101393.94;5094365;28;20161;-46
2023/08/08 01:28:43;;;;;;;9.45;2.70;;;;;;;13.54;100.00;101387.75;5096658;28;20099;-46
2023/08/08 01:31:08;;;;;;;5.68;2.75;;;;;;;13.57;100.00;101400.00;5091804;28;20019;-47
2023/08/08 01:33:34;;;;;;;7.32;3.33;;;;;;;13.59;100.00;101403.38;5098312;28;20028;-46
2023/08/08 01:36:04;;;;;;;6.45;3.10;;;;;;;13.60;100.00;101392.59;5096546;28;20032;-47
2023/08/08 01:38:38;;;;;;;9.98;3.35;;;;;;;13.61;100.00;101388.13;5094269;28;20035;-47
2023/08/08 01:41:04;;;;;;;5.93;2.72;;;;;;;13.64;100.00;101398.56;5096401;28;20032;-47
2023/08/08 01:43:31;;;;;;;4.85;3.00;;;;;;;13.64;100.00;101387.88;5097227;28;20356;-45
2023/08/08 01:45:57;;;;;;;6.82;3.17;;;;;;;13.65;100.00;101387.72;5096006;28;20047;-46
2023/08/08 01:48:22;;;;;;;7.68;3.03;;;;;;;13.66;100.00;101392.09;5092459;28;20062;-46
2023/08/08 01:50:48;;;;;;;7.43;2.95;;;;;;;13.68;100.00;101379.47;5096815;28;20059;-47
2023/08/08 01:53:13;;;;;;;9.60;2.83;;;;;;;13.68;100.00;101375.97;5105645;28;20032;-46
2023/08/08 01:55:38;;;;;;;8.23;3.33;;;;;;;13.68;100.00;101381.31;5098896;28;20377;-47
2023/08/08 01:58:04;;;;;;;8.60;3.10;;;;;;;13.69;100.00;101377.66;5105315;28;20419;-46
2023/08/08 02:00:29;;;;;;;5.53;3.00;;;;;;;13.69;100.00;101385.69;5102385;28;20028;-47
2023/08/08 02:02:54;;;;;;;5.30;3.08;;;;;;;13.69;100.00;101375.00;5101155;28;20040;-46
2023/08/08 02:05:19;;;;;;;9.25;3.28;;;;;;;13.65;100.00;101366.38;5102261;28;20024;-46
2023/08/08 02:07:45;;;;;;;9.32;3.33;;;;;;;13.61;100.00;101369.44;5104656;28;20024;-47
2023/08/08 02:10:10;;;;;;;9.88;3.08;;;;;;;13.60;100.00;101370.41;5098850;27;20032;-45
2023/08/08 02:12:35;;;;;;;6.25;3.10;;;;;;;13.57;100.00;101359.97;5098961;28;20031;-48
2023/08/08 02:15:01;;;;;;;8.10;3.30;;;;;;;13.55;100.00;101372.59;5101004;28;20023;-47
2023/08/08 02:17:28;;;;;;;9.43;3.42;;;;;;;13.50;100.00;101376.47;5096538;28;20034;-46
2023/08/08 02:19:54;;;;;;;9.32;3.25;;;;;;;13.53;100.00;101367.38;5098423;28;20081;-46
2023/08/08 02:22:19;;;;;;;7.57;3.28;;;;;;;13.50;100.00;101365.78;5098047;28;20020;-46
2023/08/08 02:24:44;;;;;;;7.55;3.13;;;;;;;13.48;100.00;101364.22;5104820;28;20020;-46
2023/08/08 02:27:11;;;;;;;11.05;3.35;;;;;;;13.47;100.00;101366.06;5095226;28;20385;-46
2023/08/08 02:29:37;;;;;;;9.20;3.08;;;;;;;13.45;100.00;101354.63;5102578;28;20043;-47
2023/08/08 02:32:02;;;;;;;11.23;3.35;;;;;;;13.47;100.00;101360.72;5104018;28;20058;-47
2023/08/08 02:34:27;;;;;;;8.98;3.10;;;;;;;13.47;100.00;101360.72;5094285;28;20062;-46
2023/08/08 02:36:53;;;;;;;7.80;3.20;;;;;;;13.47;100.00;101351.84;5098436;28;20031;-46
2023/08/08 02:39:18;;;;;;;8.18;3.30;;;;;;;13.48;100.00;101356.22;5103750;28;20036;-46
2023/08/08 02:41:43;;;;;;;12.02;3.83;;;;;;;13.45;100.00;101343.97;5097331;28;20026;-47
2023/08/08 02:44:09;;;;;;;11.63;3.67;;;;;;;13.47;100.00;101354.50;5099653;28;20048;-47
2023/08/08 02:46:34;;;;;;;10.30;3.88;;;;;;;13.47;100.00;101335.84;5096743;28;20137;-46
2023/08/08 02:48:59;;;;;;;10.57;3.72;;;;;;;13.47;100.00;101339.38;5102324;28;20033;-46
2023/08/08 02:51:25;;;;;;;8.45;3.10;;;;;;;13.46;100.00;101339.50;5099945;28;20107;-46
2023/08/08 02:53:50;;;;;;;6.85;3.65;;;;;;;13.47;100.00;101334.03;5090467;28;20124;-46
2023/08/08 02:56:15;;;;;;;8.32;3.67;;;;;;;13.49;100.00;101323.25;5096771;28;20015;-46
2023/08/08 02:58:40;;;;;;;7.90;3.55;;;;;;;13.48;100.00;101326.88;5097533;28;20110;-45
2023/08/08 03:01:06;;;;;;;9.10;3.97;;;;;;;13.49;100.00;101331.25;5101127;28;20048;-45
2023/08/08 03:03:31;;;;;;;10.80;3.85;;;;;;;13.48;100.00;101330.38;5099211;28;20039;-45
2023/08/08 03:05:56;;;;;;;10.95;4.15;;;;;;;13.45;100.00;101337.78;5095848;28;20013;-47
2023/08/08 03:08:22;;;;;;;13.10;4.00;;;;;;;13.44;100.00;101336.94;5100352;28;20122;-47
2023/08/08 03:10:47;;;;;;;9.65;4.25;;;;;;;13.39;100.00;101325.81;5095361;28;20036;-47
2023/08/08 03:13:12;;;;;;;11.10;4.63;;;;;;;13.42;100.00;101333.56;5099341;28;20389;-47
2023/08/08 03:15:38;;;;;;;11.50;4.72;;;;;;;13.44;100.00;101336.94;5100734;28;20032;-45
2023/08/08 03:18:03;;;;;;;10.45;4.30;;;;;;;13.44;100.00;101342.28;5094834;28;20047;-46
2023/08/08 03:20:29;;;;;;;9.95;4.30;;;;;;;13.43;100.00;101340.59;5096347;28;20020;-46
2023/08/08 03:22:54;;;;;;;12.57;4.65;;;;;;;13.45;100.00;101332.44;5098230;28;20023;-47
2023/08/08 03:25:19;;;;;;;10.68;4.28;;;;;;;13.45;100.00;101333.28;5098214;28;20049;-46
2023/08/08 03:27:45;;;;;;;8.00;3.97;;;;;;;13.46;100.00;101329.66;5100846;28;20049;-46
2023/08/08 03:30:11;;;;;;;8.43;4.22;;;;;;;13.47;100.00;101326.03;5097350;28;20051;-46
2023/08/08 03:32:36;;;;;;;9.77;4.35;;;;;;;13.48;100.00;101329.53;5099798;28;20031;-46
2023/08/08 03:35:02;;;;;;;12.05;4.70;;;;;;;13.48;100.00;101326.88;5100640;28;20426;-45
2023/08/08 03:37:27;;;;;;;10.55;4.47;;;;;;;13.48;100.00;101324.19;5098762;28;20020;-45
2023/08/08 03:39:53;;;;;;;9.02;4.90;;;;;;;13.48;100.00;101332.22;5095127;28;20023;-46
2023/08/08 03:42:18;;;;;;;14.68;5.40;;;;;;;13.48;100.00;101324.19;5094112;28;20482;-46
2023/08/08 03:44:45;;;;;;;9.82;4.55;;;;;;;13.47;100.00;101326.03;5056572;28;1044313;-45
2023/08/08 03:47:10;;;;;;;11.45;4.72;;;;;;;13.47;100.00;101325.16;5102001;28;20035;-46
2023/08/08 03:49:35;;;;;;;14.35;4.90;;;;;;;13.45;100.00;101322.63;5095073;28;20107;-45
2023/08/08 03:52:01;;;;;;;13.18;4.43;;;;;;;13.44;100.00;101323.63;5103928;28;20538;-47
2023/08/08 03:54:26;;;;;;;13.77;4.35;;;;;;;13.41;100.00;101317.69;5097715;28;20052;-46
2023/08/08 03:56:51;;;;;;;14.00;4.95;;;;;;;13.40;100.00;101321.31;5100600;28;20107;-45
2023/08/08 03:59:16;;;;;;;10.05;4.75;;;;;;;13.38;100.00;101315.25;5094686;28;20046;-46
2023/08/08 04:01:42;;;;;;;12.57;5.00;;;;;;;13.34;100.00;101320.00;5100528;28;20035;-46
2023/08/08 04:04:07;;;;;;;14.95;5.30;;;;;;;13.33;100.00;101320.97;5099036;28;20069;-46
2023/08/08 04:06:32;;;;;;;12.57;4.93;;;;;;;13.30;100.00;101311.34;5101232;28;20020;-46
2023/08/08 04:08:58;;;;;;;12.55;5.22;;;;;;;13.28;100.00;101323.13;5102356;28;20076;-45
2023/08/08 04:11:23;;;;;;;13.60;5.30;;;;;;;13.25;100.00;101318.88;5097665;28;20031;-48
2023/08/08 04:13:48;;;;;;;13.65;5.75;;;;;;;13.22;100.00;101319.13;5100398;28;20461;-47
2023/08/08 04:16:14;;;;;;;12.18;5.10;;;;;;;13.17;100.00;101315.97;5097821;28;20036;-47
2023/08/08 04:18:39;;;;;;;11.73;5.32;;;;;;;13.13;100.00;101319.84;5094397;28;20028;-46
2023/08/08 04:21:05;;;;;;;14.30;5.55;;;;;;;13.08;100.00;101322.88;5102421;28;20032;-48
2023/08/08 04:23:30;;;;;;;14.05;5.45;;;;;;;13.05;100.00;101316.94;5094198;28;20032;-47
2023/08/08 04:25:55;;;;;;;10.73;4.78;;;;;;;12.99;100.00;101314.75;5096362;28;20085;-47
2023/08/08 04:28:21;;;;;;;14.27;5.65;;;;;;;12.99;100.00;101320.09;5102552;28;20089;-46
2023/08/08 04:30:46;;;;;;;15.38;5.35;;;;;;;12.94;100.00;101318.66;5097531;28;20103;-47
2023/08/08 04:33:11;;;;;;;15.60;5.82;;;;;;;12.93;100.00;101324.09;5097956;28;20057;-48
2023/08/08 04:35:37;;;;;;;14.45;5.60;;;;;;;12.90;100.00;101319.00;5096358;28;20020;-47
2023/08/08 04:38:03;;;;;;;15.57;6.28;;;;;;;12.86;100.00;101307.75;5094836;28;20533;-47
2023/08/08 04:40:28;;;;;;;12.52;5.85;;;;;;;12.83;100.00;101321.31;5093420;28;20039;-48
2023/08/08 04:42:54;;;;;;;20.13;6.03;;;;;;;12.85;100.00;101326.53;5097434;28;20051;-48
2023/08/08 04:45:20;;;;;;;17.65;5.32;;;;;;;12.84;100.00;101328.34;5098489;28;20027;-48
2023/08/08 04:47:46;;;;;;;18.48;6.10;;;;;;;12.81;100.00;101325.94;5097078;28;20024;-49
2023/08/08 04:50:11;;;;;;;12.80;5.80;;;;;;;12.79;100.00;101322.53;5093190;28;20466;-48
2023/08/08 04:52:37;;;;;;;15.80;6.00;;;;;;;12.79;100.00;101322.53;5101424;28;20427;-47
2023/08/08 04:55:02;;;;;;;15.70;6.18;;;;;;;12.76;100.00;101326.28;5099280;27;20020;-47
2023/08/08 04:57:27;;;;;;;13.35;5.57;;;;;;;12.75;100.00;101331.72;5096206;28;20034;-48
2023/08/08 04:59:53;;;;;;;17.52;6.20;;;;;;;12.76;100.00;101328.09;5094519;28;20503;-48
2023/08/08 05:02:18;;;;;;;16.77;5.82;;;;;;;12.77;100.00;101324.44;5098650;28;20039;-48
2023/08/08 05:04:43;;;;;;;21.58;7.20;;;;;;;12.76;100.00;101328.09;5099929;28;20063;-48
2023/08/08 05:07:09;;;;;;;13.57;5.90;;;;;;;12.75;100.00;101316.56;5095643;28;20034;-48
2023/08/08 05:09:34;;;;;;;17.67;6.57;;;;;;;12.73;100.00;101329.19;5096821;28;20561;-49
2023/08/08 05:11:59;;;;;;;14.25;6.32;;;;;;;12.72;100.00;101324.84;5095302;28;20024;-49
2023/08/08 05:14:25;;;;;;;17.67;6.18;;;;;;;12.73;100.00;101321.19;5093587;28;20051;-48
2023/08/08 05:16:50;;;;;;;11.68;5.78;;;;;;;12.76;100.00;101322.78;5101374;28;20408;-49
2023/08/08 05:19:15;;;;;;;14.75;6.97;;;;;;;12.78;100.00;101319.00;5094957;28;20470;-48
2023/08/08 05:21:40;;;;;;;17.90;6.60;;;;;;;12.79;100.00;101317.22;5101241;28;20031;-48
2023/08/08 05:24:06;;;;;;;16.80;6.95;;;;;;;12.80;100.00;101318.03;5097126;28;20492;-48
2023/08/08 05:26:31;;;;;;;16.20;6.40;;;;;;;12.84;100.00;101319.50;5096041;28;20043;-48
2023/08/08 05:28:56;;;;;;;18.45;6.60;;;;;;;12.86;100.00;101315.75;5098200;28;20032;-48
2023/08/08 05:31:22;;;;;;;14.48;6.22;;;;;;;12.90;100.00;101319.00;5097216;28;20403;-48
2023/08/08 05:33:48;;;;;;;15.57;6.68;;;;;;;12.93;100.00;101324.94;5097183;28;20068;-49
2023/08/08 05:36:14;;;;;;;13.40;6.55;;;;;;;12.98;100.00;101326.41;5094669;28;20031;-48
2023/08/08 05:38:40;;;;;;;14.77;6.95;;;;;;;13.01;100.00;101321.69;5095490;28;20472;-48
2023/08/08 05:41:06;;;;;;;13.05;6.18;;;;;;;13.05;100.00;101333.78;5096579;28;20025;-50
2023/08/08 05:43:31;;;;;;;18.83;6.78;;;;;;;13.11;100.00;101335.97;5099111;28;20487;-48
2023/08/08 05:45:56;;;;;;;16.67;7.40;;;;;;;13.16;100.00;101334.78;5099722;28;20373;-50
2023/08/08 05:48:22;;;;;;;16.27;6.82;;;;;;;13.21;100.00;101336.09;5094439;28;20028;-47
2023/08/08 05:50:47;;;;;;;17.00;6.45;;;;;;;13.24;100.00;101329.66;5090190;28;20016;-47
2023/08/08 05:53:12;;;;;;;17.40;6.78;;;;;;;13.30;100.00;101335.34;5092710;28;20495;-47
2023/08/08 05:55:40;;;;;;;15.65;6.32;;;;;;;13.35;100.00;101321.66;5088625;28;20020;-47
2023/08/08 05:58:06;;;;;;;12.43;5.85;;;;;;;13.46;100.00;101321.66;5093408;28;20111;-47
2023/08/08 06:00:31;;;;;;;16.95;6.32;;;;;;;13.53;100.00;101332.69;5092299;28;20110;-48
2023/08/08 06:02:57;;;;;;;14.43;6.45;;;;;;;13.60;100.00;101328.53;5094751;28;20039;-47
2023/08/08 06:05:23;;;;;;;16.27;7.00;;;;;;;13.66;100.00;101325.38;5088897;28;20434;-48
2023/08/08 06:07:49;;;;;;;21.42;6.80;;;;;;;13.73;100.00;101327.53;5088901;28;20122;-47
2023/08/08 06:10:14;;;;;;;14.70;5.95;;;;;;;13.80;100.00;101329.56;5093290;28;20112;-48
2023/08/08 06:12:40;;;;;;;15.82;6.57;;;;;;;13.85;100.00;101335.38;5087407;28;20039;-47
2023/08/08 06:15:06;;;;;;;15.30;6.30;;;;;;;13.91;100.00;101331.34;5088729;28;20020;-47
2023/08/08 06:17:31;;;;;;;20.00;6.65;;;;;;;13.94;100.00;101332.91;5091709;28;20398;-47
2023/08/08 06:19:57;;;;;;;15.77;6.20;;;;;;;13.98;100.00;101335.19;5094667;28;20016;-47
2023/08/08 06:22:23;;;;;;;15.25;6.35;;;;;;;14.00;100.00;101338.59;5089547;28;20039;-47
2023/08/08 06:24:48;;;;;;;13.40;5.90;;;;;;;14.02;100.00;101338.47;5093602;28;20042;-48
2023/08/08 06:27:13;;;;;;;17.17;5.85;;;;;;;14.03;100.00;101341.00;5090208;28;20527;-47
2023/08/08 06:29:39;;;;;;;12.57;5.85;;;;;;;14.06;100.00;101342.59;5095681;28;20065;-47
2023/08/08 06:32:04;;;;;;;11.65;6.00;;;;;;;14.14;100.00;101344.59;5089886;28;20073;-46
2023/08/08 06:34:29;;;;;;;16.40;6.10;;;;;;;14.23;100.00;101344.69;5098955;28;20054;-46
2023/08/08 06:36:55;;;;;;;14.95;5.70;;;;;;;14.34;100.00;101338.44;5098654;28;20055;-47
2023/08/08 06:39:21;;;;;;;15.45;6.53;;;;;;;14.42;100.00;101340.44;5095005;28;20020;-47
2023/08/08 06:41:47;;;;;;;16.38;6.53;;;;;;;14.57;100.00;101344.50;5102947;28;20028;-46
2023/08/08 06:44:12;;;;;;;16.00;6.00;;;;;;;14.69;100.00;101336.41;5099635;28;20152;-47
2023/08/08 06:46:38;;;;;;;17.15;6.75;;;;;;;14.85;100.00;101335.94;5099646;27;20052;-47
2023/08/08 06:49:04;;;;;;;15.93;6.50;;;;;;;14.97;100.00;101332.19;5095181;28;20058;-47
2023/08/08 06:51:29;;;;;;;16.90;6.07;;;;;;;15.14;100.00;101341.44;5096106;28;20039;-48
2023/08/08 06:53:55;;;;;;;12.15;5.35;;;;;;;15.23;100.00;101332.56;5100838;28;20028;-47
2023/08/08 06:56:20;;;;;;;14.35;5.40;;;;;;;15.33;100.00;101340.63;5094144;28;20035;-47
2023/08/08 06:58:45;;;;;;;11.43;5.40;;;;;;;15.48;100.00;101341.94;5094110;28;20552;-48
2023/08/08 07:01:11;;;;;;;15.40;5.50;;;;;;;15.68;100.00;101342.81;5099064;27;20127;-47
2023/08/08 07:03:36;;;;;;;13.82;4.93;;;;;;;15.79;100.00;101341.91;5096900;28;20032;-48
2023/08/08 07:06:03;;;;;;;13.68;6.00;;;;;;;15.94;100.00;101355.72;5101396;28;20074;-48
2023/08/08 07:08:29;;;;;;;11.85;5.57;;;;;;;16.10;100.00;101339.06;5101207;28;20485;-48
2023/08/08 07:10:54;;;;;;;14.07;5.22;;;;;;;16.22;99.17;101339.75;5095013;28;20513;-48
2023/08/08 07:13:20;;;;;;;11.07;5.13;;;;;;;16.28;98.26;101349.94;5099036;28;20048;-48
2023/08/08 07:15:45;;;;;;;14.18;5.35;;;;;;;16.39;99.16;101344.41;5103161;28;20072;-48
2023/08/08 07:18:10;;;;;;;14.65;5.10;;;;;;;16.52;97.76;101345.94;5095620;28;20069;-47
2023/08/08 07:20:36;;;;;;;14.63;4.40;;;;;;;16.64;98.39;101347.47;5097949;28;20078;-46
2023/08/08 07:23:01;;;;;;;11.25;4.97;;;;;;;16.70;96.47;101341.50;5098862;28;20031;-48
2023/08/08 07:25:27;;;;;;;12.90;4.53;;;;;;;16.72;95.86;101344.91;5093473;28;20107;-46
2023/08/08 07:27:52;;;;;;;10.55;4.50;;;;;;;16.83;96.29;101346.56;5095014;28;20032;-53
2023/08/08 07:30:17;;;;;;;10.00;5.05;;;;;;;16.89;95.62;101348.69;5094720;28;20410;-45
2023/08/08 07:32:43;;;;;;;9.40;4.15;;;;;;;16.97;94.40;101337.22;5099237;28;20038;-46
2023/08/08 07:35:08;;;;;;;10.50;4.43;;;;;;;17.11;92.80;101349.31;5098783;28;20546;-46
2023/08/08 07:37:34;;;;;;;10.63;4.20;;;;;;;17.22;92.77;101351.81;5094581;28;20035;-47
2023/08/08 07:40:00;;;;;;;11.43;3.92;;;;;;;17.34;91.31;101339.88;5091893;28;20482;-46
2023/08/08 07:42:26;;;;;;;14.35;4.40;;;;;;;17.51;89.72;101343.59;5097384;28;20028;-47
2023/08/08 07:44:51;;;;;;;8.82;3.70;;;;;;;17.65;88.55;101336.00;5100665;28;20093;-46
2023/08/08 07:47:16;;;;;;;9.07;3.50;;;;;;;17.76;87.65;101338.47;5090086;28;20024;-48
2023/08/08 07:49:41;;;;;;;9.25;3.45;;;;;;;17.86;88.27;101341.09;5100294;28;20024;-46
2023/08/08 07:52:07;;;;;;;8.90;3.17;;;;;;;17.90;84.13;101343.38;5095653;28;20107;-47
2023/08/08 07:54:33;;;;;;;10.25;3.20;;;;;;;18.03;86.16;101342.13;5100736;28;20021;-47
2023/08/08 07:56:59;;;;;;;7.85;3.42;;;;;;;18.09;82.04;101341.53;5095537;28;20497;-47
2023/08/08 07:59:24;;;;;;;8.68;3.38;;;;;;;18.17;82.52;101346.97;5095861;28;20032;-47
2023/08/08 08:01:49;;;;;;;11.25;3.60;;;;;;;18.24;83.01;101352.56;5097482;28;20054;-48
2023/08/08 08:04:15;;;;;;;10.73;4.10;;;;;;;18.10;79.54;101341.38;5100827;28;20032;-47
2023/08/08 08:06:40;;;;;;;7.80;3.40;;;;;;;18.19;81.82;101350.34;5102028;28;20068;-47
2023/08/08 08:09:05;;;;;;;8.88;3.78;;;;;;;18.11;79.17;101347.56;5091923;28;20410;-47
2023/08/08 08:11:30;;;;;;;7.97;3.42;;;;;;;18.21;81.71;101351.03;5095106;28;20028;-48
2023/08/08 08:13:56;;;;;;;7.85;3.65;;;;;;;18.17;80.32;101340.72;5095094;28;20359;-47
2023/08/08 08:16:21;;;;;;;9.52;3.70;;;;;;;18.29;81.17;101339.50;5094070;28;20027;-47
2023/08/08 08:18:47;;;;;;;10.60;3.78;;;;;;;18.58;82.23;101343.72;5093282;28;20035;-47
2023/08/08 08:21:14;;;;;;;7.70;3.78;;;;;;;18.75;77.99;101340.16;5092314;28;20470;-48
2023/08/08 08:23:39;;;;;;;11.35;4.20;;;;;;;19.05;77.87;101337.97;5094667;28;20127;-47
2023/08/08 08:26:04;;;;;;;10.07;3.47;;;;;;;19.26;77.22;101348.31;5096827;28;20305;-49
2023/08/08 08:28:30;;;;;;;9.20;3.70;;;;;;;19.30;76.96;101352.41;5094931;28;20024;-49
2023/08/08 08:30:55;;;;;;;13.98;3.33;;;;;;;19.28;75.09;101346.31;5097661;28;20114;-49
2023/08/08 08:33:20;;;;;;;8.30;3.30;;;;;;;19.22;75.69;101346.97;5096945;28;20059;-49
2023/08/08 08:35:46;;;;;;;9.48;3.40;;;;;;;19.12;77.58;101336.34;5094784;28;20056;-50
2023/08/08 08:38:11;;;;;;;6.70;3.08;;;;;;;19.09;75.05;101342.03;5099275;28;20066;-49
2023/08/08 08:40:40;;;;;;;10.20;3.00;;;;;;;19.04;76.43;101347.06;5095587;28;20020;-50
2023/08/08 08:43:07;;;;;;;;;;;;;;;19.22;80.60;101342.44;5096509;28;20044;-48
2023/08/08 08:45:39;;;;;;;8.50;3.03;;;;;;;19.09;75.77;101344.72;5097545;28;20372;-49
2023/08/08 08:48:08;;;;;;;8.13;2.90;;;;;;;19.21;76.74;101345.28;5093549;28;20036;-49
2023/08/08 08:50:33;;;;;;;9.40;3.30;;;;;;;19.26;76.40;101339.41;5096641;28;20388;-49
2023/08/08 08:53:01;;;;;;;9.48;3.00;;;;;;;19.21;75.13;101353.34;5094767;28;20027;-49
2023/08/08 08:55:27;;;;;;;5.80;2.60;;;;;;;19.20;73.85;101352.53;5099796;28;20040;-49
2023/08/08 08:57:52;;;;;;;7.15;2.60;;;;;;;19.08;71.04;101351.09;5095284;28;20028;-49
2023/08/08 09:00:18;;;;;;;8.68;2.45;;;;;;;18.95;71.56;101354.25;5101712;28;20035;-48
2023/08/08 09:02:44;;;;;;;6.10;2.30;;;;;;;18.87;72.95;101348.84;5093966;28;20537;-48
2023/08/08 09:05:11;;;;;;;5.10;2.20;;;;;;;18.72;72.08;101343.16;5097963;28;20028;-48
2023/08/08 09:07:37;;;;;;;8.02;2.13;;;;;;;18.68;71.91;101361.47;5098724;28;20036;-49
2023/08/08 09:10:03;;;;;;;6.55;2.17;;;;;;;18.70;73.79;101358.59;5098100;28;20036;-48
2023/08/08 09:12:31;;;;;;;4.43;2.33;;;;;;;18.66;73.98;101352.69;5093453;28;20553;-48
2023/08/08 09:14:57;;;;;;;6.18;2.20;;;;;;;18.62;75.21;101356.72;5066358;28;20032;-48
2023/08/08 09:17:25;;;;;;;6.22;2.58;;;;;;;18.58;75.12;101355.31;5091559;28;20043;-49
2023/08/08 09:19:53;;;;;;;6.82;2.80;;;;;;;18.46;73.54;101357.44;5093033;28;20028;-49
2023/08/08 09:22:19;;;;;;;10.27;2.83;;;;;;;18.47;74.73;101361.81;5094795;28;20542;-49
2023/08/08 09:24:46;;;;;;;8.88;2.60;;;;;;;18.41;74.09;101349.00;5097801;28;20020;-48
2023/08/08 09:27:11;;;;;;;6.53;2.30;;;;;;;18.37;75.71;101349.44;5097816;28;20036;-48
2023/08/08 09:29:38;;;;;;;5.47;2.15;;;;;;;18.42;74.23;101357.94;5096480;28;20040;-47
2023/08/08 09:32:05;;;;;;;6.38;2.20;;;;;;;18.45;75.47;101355.75;5092513;28;20440;-48
2023/08/08 09:34:30;;;;;;;4.93;2.50;;;;;;;18.52;76.45;101353.28;5092570;28;20466;-48
2023/08/08 09:36:56;;;;;;;4.47;2.35;;;;;;;18.65;77.25;101353.72;5095843;28;20034;-48
2023/08/08 09:39:21;;;;;;;7.72;2.90;;;;;;;18.69;76.13;101362.31;5096816;28;20043;-49
2023/08/08 09:41:47;;;;;;;9.27;3.58;;;;;;;18.82;76.48;101357.34;5098798;28;20021;-49
2023/08/08 09:44:12;;;;;;;11.80;3.83;;;;;;;18.84;74.80;101360.75;5092330;28;20137;-49
2023/08/08 09:46:39;;;;;;;7.57;3.25;;;;;;;18.88;76.14;101355.88;5092332;28;20031;-48
2023/08/08 09:49:05;;;;;;;5.63;3.10;;;;;;;18.95;75.54;101358.78;5090542;28;20040;-48
2023/08/08 09:51:31;;;;;;;7.20;3.00;;;;;;;18.92;75.35;101361.78;5100214;28;20024;-49
2023/08/08 09:53:57;;;;;;;8.27;2.72;;;;;;;18.97;73.14;101365.72;5093811;28;20024;-47
2023/08/08 09:56:25;;;;;;;7.80;2.67;;;;;;;19.04;74.44;101357.84;5090612;28;20396;-48
2023/08/08 09:58:52;;;;;;;7.90;3.10;;;;;;;19.11;74.42;101358.03;5095277;28;20039;-48
2023/08/08 10:01:19;;;;;;;8.77;2.95;;;;;;;19.22;73.60;101355.91;5097130;28;20046;-48
2023/08/08 10:03:45;;;;;;;6.40;2.63;;;;;;;19.36;70.90;101359.81;5091332;28;20107;-49
2023/08/08 10:06:10;;;;;;;3.83;2.35;;;;;;;19.50;70.21;101358.38;5092975;28;20108;-48
2023/08/08 10:08:36;;;;;;;4.75;2.40;;;;;;;19.89;70.56;101355.09;5089640;28;20078;-48
2023/08/08 10:11:03;;;;;;;11.63;2.92;;;;;;;20.13;70.47;101362.38;5090419;28;20460;-47
2023/08/08 10:13:28;;;;;;;9.07;2.30;;;;;;;20.27;66.44;101354.63;5104528;28;20024;-48
2023/08/08 10:15:55;;;;;;;3.83;2.08;;;;;;;20.52;66.58;101358.97;5092880;28;20115;-49
2023/08/08 10:18:24;;;;;;;7.40;2.55;;;;;;;20.64;63.91;101362.19;5105887;28;20073;-49
2023/08/08 10:20:50;;;;;;;4.63;2.20;;;;;;;20.85;66.86;101355.41;5098640;28;20028;-49
2023/08/08 10:23:18;;;;;;;7.07;2.40;;;;;;;21.03;65.19;101356.03;5081236;28;20034;-49
2023/08/08 10:25:45;;;;;;;7.05;2.00;;;;;;;20.92;65.22;101355.53;5096322;28;20035;-47
2023/08/08 10:28:13;;;;;;;3.45;1.90;;;;;;;20.92;64.37;101352.84;5092854;28;20032;-47
2023/08/08 10:30:55;;;;;;;3.38;2.00;;;;;;;21.11;66.80;101357.84;5097734;28;20434;-47
2023/08/08 10:33:22;;;;;;;7.32;2.00;;;;;;;21.13;64.67;101353.13;5096606;28;20027;-47
2023/08/08 10:36:13;;;;;;;6.28;1.80;;;;;;;21.25;65.50;101356.31;5096458;28;20040;-48
2023/08/08 10:38:48;;;;;;;5.15;1.80;;;;;;;21.04;62.28;101357.72;5093041;28;20367;-48
2023/08/08 10:41:16;;;;;;;4.40;2.10;;;;;;;20.65;60.39;101366.59;5096635;28;20081;-47
2023/08/08 10:43:56;;;;;;;5.53;1.83;;;;;;;20.57;62.93;101368.41;5095745;28;20455;-47
2023/08/08 10:46:26;;;;;;;4.28;1.80;;;;;;;20.30;64.19;101368.63;5098108;28;20032;-47
2023/08/08 10:48:53;;;;;;;3.92;1.70;;;;;;;20.10;63.37;101378.91;5097057;28;20015;-47
2023/08/08 10:51:19;;;;;;;6.28;1.88;;;;;;;19.97;65.75;101367.75;5101752;28;20039;-48
2023/08/08 10:53:45;;;;;;;3.97;1.90;;;;;;;19.75;65.55;101367.38;5099393;28;20024;-47
2023/08/08 10:56:13;;;;;;;6.55;1.98;;;;;;;19.75;66.11;101363.81;5100917;28;20031;-49
2023/08/08 10:58:40;;;;;;;5.10;2.38;;;;;;;19.69;68.19;101354.53;5098427;28;20031;-49
2023/08/08 11:01:09;;;;;;;4.85;2.55;;;;;;;19.81;65.69;101349.69;5092685;28;20032;-47
2023/08/08 11:03:41;;;;;;;;;;;;;;;20.12;68.43;101338.28;5095957;28;20359;-47
2023/08/08 11:06:08;;;;;;;4.82;2.38;;;;;;;20.32;67.30;101339.59;5099556;28;19907;-47
2023/08/08 11:08:34;;;;;;;4.63;2.13;;;;;;;20.48;64.96;101341.47;5099947;28;20545;-47
2023/08/08 11:11:00;;;;;;;5.22;2.10;;;;;;;20.55;63.42;101333.53;5096751;27;20228;-48